createdAt,value
2018-09-20T00:00:15.122Z,8.5
2018-09-20T00:01:15.302Z,8.2
2018-09-20T00:02:15.346Z,8.9
2018-09-20T00:03:15.257Z,8.9
2018-09-20T00:04:15.449Z,9.8
2018-09-20T00:05:15.504Z,8.5
2018-09-20T00:06:15.575Z,10.3
2018-09-20T00:07:15.484Z,9.8
2018-09-20T00:08:15.532Z,9.9
2018-09-20T00:09:15.624Z,9.6
2018-09-20T00:10:15.581Z,11.2
2018-09-20T00:11:15.729Z,8.9
2018-09-20T00:12:33.762Z,9.5
2018-09-20T00:13:16.079Z,10.2
2018-09-20T00:14:16.563Z,8.6
2018-09-20T00:15:16.174Z,10.1
2018-09-20T00:16:16.827Z,8.9
2018-09-20T00:17:16.671Z,8.4
2018-09-20T00:18:34.554Z,11.4
2018-09-20T00:19:16.639Z,9.8
2018-09-20T00:20:16.657Z,8.4
2018-09-20T00:21:34.658Z,9.7
2018-09-20T00:22:34.899Z,9.9
2018-09-20T00:23:16.936Z,8.4
2018-09-20T00:24:17.073Z,8.5
2018-09-20T00:25:17.215Z,9.2
2018-09-20T00:26:17.279Z,10.1
2018-09-20T00:27:17.317Z,8.7
2018-09-20T00:28:17.483Z,8.6
2018-09-20T00:29:17.561Z,9.6
2018-09-20T00:30:17.536Z,9.5
2018-09-20T00:31:17.873Z,8.5
2018-09-20T00:32:17.783Z,8.6
2018-09-20T00:33:17.959Z,9.3
2018-09-20T00:34:17.973Z,9.1
2018-09-20T00:35:17.980Z,8.9
2018-09-20T00:36:17.945Z,10.1
2018-09-20T00:37:18.988Z,8.5
2018-09-20T00:38:36.044Z,9
2018-09-20T00:39:18.191Z,10.6
2018-09-20T00:40:18.245Z,9.2
2018-09-20T00:41:18.281Z,10.3
2018-09-20T00:42:18.409Z,9.4
2018-09-20T00:43:18.376Z,9.2
2018-09-20T00:44:18.668Z,9.5
2018-09-20T00:45:18.765Z,8.5
2018-09-20T00:46:18.764Z,9.2
2018-09-20T00:47:18.741Z,9
2018-09-20T00:48:18.995Z,9
2018-09-20T00:49:19.824Z,9.2
2018-09-20T00:51:19.013Z,8.4
2018-09-20T00:52:19.177Z,9.4
2018-09-20T00:53:19.261Z,9.6
2018-09-20T00:54:19.154Z,10
2018-09-20T00:55:19.413Z,8.1
2018-09-20T00:57:19.651Z,8.2
2018-09-20T00:58:19.663Z,10.7
2018-09-20T00:59:19.767Z,9.1
2018-09-20T01:00:19.906Z,11.7
2018-09-20T01:01:19.930Z,8.9
2018-09-20T01:02:19.910Z,9.8
2018-09-20T01:03:20.187Z,9
2018-09-20T01:04:20.237Z,9.9
2018-09-20T01:05:20.234Z,9
2018-09-20T01:06:20.373Z,10.8
2018-09-20T01:07:20.448Z,12.9
2018-09-20T01:08:20.569Z,9
2018-09-20T01:09:38.744Z,10.7
2018-09-20T01:10:20.632Z,8.8
2018-09-20T01:11:20.728Z,9.6
2018-09-20T01:12:20.868Z,10.2
2018-09-20T01:13:21.072Z,11.6
2018-09-20T01:14:20.926Z,10.1
2018-09-20T01:15:21.089Z,8.8
2018-09-20T01:16:21.281Z,10.6
2018-09-20T01:17:21.391Z,9.6
2018-09-20T01:18:21.250Z,8.7
2018-09-20T01:19:21.332Z,10.3
2018-09-20T01:20:21.742Z,9
2018-09-20T01:21:21.740Z,10.4
2018-09-20T01:22:21.605Z,9.9
2018-09-20T01:23:21.703Z,9.5
2018-09-20T01:24:21.797Z,9.9
2018-09-20T01:25:21.704Z,11.3
2018-09-20T01:26:21.892Z,9.7
2018-09-20T01:27:23.000Z,8.5
2018-09-20T01:28:22.090Z,10.6
2018-09-20T01:30:22.098Z,8.4
2018-09-20T01:31:22.362Z,9.4
2018-09-20T01:32:22.286Z,10.5
2018-09-20T01:33:22.239Z,9.2
2018-09-20T01:34:23.416Z,9.9
2018-09-20T01:35:22.716Z,9.1
2018-09-20T01:36:22.804Z,10.2
2018-09-20T01:37:22.746Z,10.2
2018-09-20T01:38:22.886Z,9.4
2018-09-20T01:39:40.961Z,9.5
2018-09-20T01:40:23.034Z,9.3
2018-09-20T01:41:23.017Z,9.8
2018-09-20T01:42:23.154Z,11.4
2018-09-20T01:43:23.290Z,9.7
2018-09-20T01:44:23.478Z,10.1
2018-09-20T01:45:23.453Z,10.8
2018-09-20T01:46:23.633Z,9.4
2018-09-20T01:47:23.674Z,10.2
2018-09-20T01:48:23.636Z,9.5
2018-09-20T01:49:23.631Z,9.6
2018-09-20T01:50:23.724Z,9.2
2018-09-20T01:51:23.906Z,9.5
2018-09-20T01:52:23.749Z,9.4
2018-09-20T01:53:23.962Z,11.3
2018-09-20T01:54:23.929Z,13
2018-09-20T01:55:23.964Z,12.4
2018-09-20T01:57:24.144Z,10.2
2018-09-20T01:58:24.228Z,11
2018-09-20T01:59:24.205Z,8.7
2018-09-20T02:00:24.207Z,10.4
2018-09-20T02:01:42.267Z,9.9
2018-09-20T02:03:24.440Z,10.8
2018-09-20T02:05:24.585Z,10
2018-09-20T02:06:24.624Z,9.2
2018-09-20T02:07:24.677Z,10.7
2018-09-20T02:08:24.639Z,10.8
2018-09-20T02:09:24.913Z,9.1
2018-09-20T02:10:42.908Z,9.8
2018-09-20T02:11:24.813Z,10.2
2018-09-20T02:12:24.918Z,10.3
2018-09-20T02:13:25.946Z,9.6
2018-09-20T02:14:25.001Z,11.6
2018-09-20T02:15:25.137Z,10
2018-09-20T02:16:25.297Z,10.8
2018-09-20T02:17:25.390Z,8.9
2018-09-20T02:18:25.426Z,10.1
2018-09-20T02:19:25.546Z,9.1
2018-09-20T02:20:25.677Z,9.4
2018-09-20T02:21:25.815Z,9.4
2018-09-20T02:22:25.963Z,11.3
2018-09-20T02:24:25.909Z,9.8
2018-09-20T02:25:26.221Z,8.9
2018-09-20T02:26:26.198Z,11.3
2018-09-20T02:27:26.147Z,9.3
2018-09-20T02:28:26.325Z,11.1
2018-09-20T02:29:26.255Z,11.3
2018-09-20T02:30:26.197Z,8.7
2018-09-20T02:31:26.324Z,8.8
2018-09-20T02:32:26.398Z,9.2
2018-09-20T02:33:26.488Z,9.6
2018-09-20T02:34:26.567Z,10.6
2018-09-20T02:35:26.665Z,10.9
2018-09-20T02:36:26.776Z,11
2018-09-20T02:37:26.894Z,11.7
2018-09-20T02:38:27.974Z,9.1
2018-09-20T02:39:27.008Z,10.6
2018-09-20T02:40:27.259Z,10
2018-09-20T02:41:27.295Z,8.7
2018-09-20T02:42:27.306Z,9.2
2018-09-20T02:43:27.543Z,8.7
2018-09-20T02:44:27.585Z,8.9
2018-09-20T02:45:27.489Z,9.2
2018-09-20T02:46:27.597Z,11.6
2018-09-20T02:47:27.750Z,10.8
2018-09-20T02:48:27.883Z,10
2018-09-20T02:50:27.904Z,11.7
2018-09-20T02:51:46.026Z,9.8
2018-09-20T02:53:28.117Z,9.9
2018-09-20T02:54:28.128Z,8.7
2018-09-20T02:55:28.158Z,10
2018-09-20T02:56:28.243Z,9
2018-09-20T02:57:28.351Z,9
2018-09-20T02:58:28.574Z,8.5
2018-09-20T02:59:28.509Z,8.6
2018-09-20T03:00:28.502Z,9.5
2018-09-20T03:01:28.628Z,9.4
2018-09-20T03:02:28.814Z,9.5
2018-09-20T03:03:46.806Z,9.6
2018-09-20T03:04:28.969Z,8.7
2018-09-20T03:05:28.953Z,10.2
2018-09-20T03:06:29.038Z,8.7
2018-09-20T03:07:29.261Z,10.6
2018-09-20T03:08:29.275Z,9
2018-09-20T03:09:29.352Z,10.6
2018-09-20T03:10:29.424Z,8.8
2018-09-20T03:11:29.827Z,8.8
2018-09-20T03:12:29.767Z,11.1
2018-09-20T03:13:29.753Z,8.7
2018-09-20T03:14:29.934Z,10.2
2018-09-20T03:15:30.029Z,11.9
2018-09-20T03:16:29.896Z,8.7
2018-09-20T03:17:30.041Z,8.8
2018-09-20T03:18:30.154Z,9.3
2018-09-20T03:19:48.418Z,10.7
2018-09-20T03:20:30.504Z,10.1
2018-09-20T03:21:30.575Z,10.6
2018-09-20T03:22:31.949Z,8.8
2018-09-20T03:23:30.981Z,10.1
2018-09-20T03:24:30.852Z,9.1
2018-09-20T03:25:30.912Z,11
2018-09-20T03:26:31.892Z,9.1
2018-09-20T03:27:30.942Z,11.1
2018-09-20T03:28:31.079Z,9.5
2018-09-20T03:29:31.011Z,8.6
2018-09-20T03:30:31.196Z,11.4
2018-09-20T03:31:31.049Z,10.1
2018-09-20T03:32:30.995Z,9.4
2018-09-20T03:33:49.013Z,12.4
2018-09-20T03:34:31.264Z,8.9
2018-09-20T03:35:31.383Z,8.7
2018-09-20T03:36:31.341Z,10.1
2018-09-20T03:37:32.478Z,9.1
2018-09-20T03:38:31.585Z,11.7
2018-09-20T03:39:31.550Z,10.2
2018-09-20T03:40:31.606Z,9.9
2018-09-20T03:41:31.895Z,8.8
2018-09-20T03:42:31.970Z,9.5
2018-09-20T03:43:31.908Z,10.3
2018-09-20T03:44:31.926Z,8.3
2018-09-20T03:45:32.080Z,9.7
2018-09-20T03:46:32.140Z,10.4
2018-09-20T03:47:32.087Z,9.2
2018-09-20T03:48:32.184Z,9.3
2018-09-20T03:49:50.322Z,9.7
2018-09-20T03:50:32.388Z,9.3
2018-09-20T03:51:50.442Z,9.4
2018-09-20T03:52:32.687Z,10
2018-09-20T03:53:32.738Z,10.5
2018-09-20T03:54:32.706Z,8.7
2018-09-20T03:55:32.728Z,11.2
2018-09-20T03:56:32.894Z,9.7
2018-09-20T03:57:32.929Z,10.3
2018-09-20T03:58:51.018Z,9.9
2018-09-20T03:59:33.005Z,9.5
2018-09-20T04:00:33.279Z,10.2
2018-09-20T04:01:33.374Z,9.2
2018-09-20T04:02:33.289Z,9.6
2018-09-20T04:03:33.283Z,9
2018-09-20T04:04:33.430Z,11.1
2018-09-20T04:05:33.406Z,7.1
2018-09-20T04:06:51.226Z,10.9
2018-09-20T04:07:33.520Z,11
2018-09-20T04:08:33.784Z,10
2018-09-20T04:09:33.812Z,9.2
2018-09-20T04:10:33.702Z,8.6
2018-09-20T04:11:33.809Z,8.5
2018-09-20T04:12:51.915Z,9.6
2018-09-20T04:13:34.141Z,11.2
2018-09-20T04:14:34.115Z,10.1
2018-09-20T04:15:34.249Z,8.7
2018-09-20T04:17:34.507Z,10.2
2018-09-20T04:18:34.483Z,8.7
2018-09-20T04:19:52.354Z,9.8
2018-09-20T04:20:34.694Z,9.1
2018-09-20T04:21:34.648Z,11.8
2018-09-20T04:22:52.611Z,8.9
2018-09-20T04:23:34.985Z,8.9
2018-09-20T04:24:52.774Z,10.2
2018-09-20T04:25:34.874Z,10
2018-09-20T04:26:34.887Z,9.2
2018-09-20T04:27:52.966Z,9.9
2018-09-20T04:28:35.148Z,9.9
2018-09-20T04:29:35.104Z,10.1
2018-09-20T04:30:35.180Z,10.7
2018-09-20T04:31:35.347Z,10.3
2018-09-20T04:32:35.512Z,10.2
2018-09-20T04:34:35.431Z,10
2018-09-20T04:35:35.641Z,9.7
2018-09-20T04:36:35.503Z,10.7
2018-09-20T04:37:35.573Z,10.5
2018-09-20T04:38:35.564Z,8.8
2018-09-20T04:39:35.775Z,10.9
2018-09-20T04:40:35.820Z,9.4
2018-09-20T04:41:35.851Z,10.6
2018-09-20T04:42:35.826Z,10.2
2018-09-20T04:43:35.943Z,11.2
2018-09-20T04:44:36.006Z,10.3
2018-09-20T04:45:36.205Z,10
2018-09-20T04:46:36.190Z,10
2018-09-20T04:47:36.108Z,8.9
2018-09-20T04:48:36.281Z,12.1
2018-09-20T04:49:36.298Z,11.3
2018-09-20T04:50:36.372Z,10.3
2018-09-20T04:51:36.409Z,10
2018-09-20T04:52:36.497Z,9.3
2018-09-20T04:53:36.662Z,10.4
2018-09-20T04:54:36.585Z,10.5
2018-09-20T04:55:36.632Z,9.9
2018-09-20T04:56:54.569Z,10.5
2018-09-20T04:57:36.771Z,10.2
2018-09-20T04:59:54.908Z,9
2018-09-20T05:00:54.933Z,10.2
2018-09-20T05:01:38.084Z,11
2018-09-20T05:02:55.051Z,9.6
2018-09-20T05:03:37.213Z,9.8
2018-09-20T05:04:37.256Z,9.1
2018-09-20T05:05:37.382Z,9.8
2018-09-20T05:06:55.986Z,11.9
2018-09-20T05:09:18.727Z,13
2018-09-20T05:10:46.242Z,14.2
2018-09-20T05:11:20.093Z,11.4
2018-09-20T05:12:20.199Z,9.7
2018-09-20T05:13:02.518Z,9.8
2018-09-20T05:14:02.624Z,11.6
2018-09-20T05:16:25.455Z,9.7
2018-09-20T05:16:41.511Z,9.5
2018-09-20T05:17:41.566Z,10.1
2018-09-20T05:18:59.620Z,9.5
2018-09-20T05:19:42.007Z,11.9
2018-09-20T05:20:59.819Z,10.3
2018-09-20T05:21:41.962Z,10.1
2018-09-20T05:23:00.103Z,10
2018-09-20T05:23:42.264Z,11.2
2018-09-20T05:24:42.292Z,9.8
2018-09-20T05:26:00.195Z,10.3
2018-09-20T05:37:40.559Z,10.7
2018-09-20T05:38:14.537Z,9.9
2018-09-20T05:38:56.748Z,15.4
2018-09-20T05:40:14.594Z,12.5
2018-09-20T05:41:14.702Z,12.9
2018-09-20T05:41:56.916Z,14.1
2018-09-20T05:42:56.918Z,15.5
2018-09-20T05:43:56.878Z,11.9
2018-09-20T05:44:57.005Z,12.4
2018-09-20T05:45:57.169Z,12.7
2018-09-20T05:48:15.170Z,15.3
2018-09-20T05:48:57.246Z,17
2018-09-20T05:49:57.188Z,15.3
2018-09-20T05:50:57.320Z,15.4
2018-09-20T05:51:57.487Z,13.2
2018-09-20T05:52:57.455Z,15.2
2018-09-20T05:53:57.767Z,12.8
2018-09-20T05:54:57.704Z,12.2
2018-09-20T05:55:57.769Z,9.3
2018-09-20T05:56:57.784Z,10.3
2018-09-20T05:58:15.603Z,11.4
2018-09-20T05:58:57.813Z,12.9
2018-09-20T05:59:57.902Z,13
2018-09-20T06:00:58.070Z,11.3
2018-09-20T06:01:58.055Z,13.6
2018-09-20T06:02:58.182Z,11.6
2018-09-20T06:03:58.199Z,11.1
2018-09-20T06:04:58.117Z,12.9
2018-09-20T06:05:58.302Z,9.7
2018-09-20T06:06:58.347Z,11.8
2018-09-20T06:07:58.544Z,11.7
2018-09-20T06:09:58.401Z,12.2
2018-09-20T06:10:58.659Z,10.8
2018-09-20T06:11:58.699Z,15.2
2018-09-20T06:13:58.709Z,13.9
2018-09-20T06:14:58.741Z,11.9
2018-09-20T06:15:58.768Z,13.8
2018-09-20T06:16:58.784Z,10.5
2018-09-20T06:17:59.007Z,11.5
2018-09-20T06:18:59.130Z,12.1
2018-09-20T06:19:59.142Z,16.6
2018-09-20T06:20:59.117Z,11.7
2018-09-20T06:21:59.233Z,12.9
2018-09-20T06:22:59.505Z,9.4
2018-09-20T06:23:59.325Z,10.7
2018-09-20T06:24:59.333Z,10.1
2018-09-20T06:26:17.408Z,13.3
2018-09-20T06:27:17.570Z,12.1
2018-09-20T06:27:59.793Z,13.5
2018-09-20T06:28:59.758Z,12.9
2018-09-20T06:29:59.878Z,11.7
2018-09-20T06:31:00.107Z,13.1
2018-09-20T06:32:00.086Z,13.7
2018-09-20T06:33:18.125Z,15.7
2018-09-20T06:34:18.210Z,13.2
2018-09-20T06:35:00.420Z,14.7
2018-09-20T06:36:18.284Z,12.2
2018-09-20T06:37:00.409Z,12
2018-09-20T06:38:00.571Z,13.5
2018-09-20T06:39:18.487Z,11.8
2018-09-20T06:40:00.794Z,12
2018-09-20T06:41:00.893Z,11.7
2018-09-20T06:42:00.825Z,14.7
2018-09-20T06:44:00.901Z,12.5
2018-09-20T06:45:01.116Z,13.6
2018-09-20T06:46:01.254Z,18.299999
2018-09-20T06:47:19.105Z,16.9
2018-09-20T06:48:01.213Z,10.8
2018-09-20T06:50:01.457Z,15.4
2018-09-20T06:51:01.583Z,17.1
2018-09-20T06:53:01.804Z,13.7
2018-09-20T06:54:01.886Z,17.4
2018-09-20T06:55:19.770Z,14.6
2018-09-20T06:56:01.880Z,13.9
2018-09-20T06:57:02.038Z,14.6
2018-09-20T06:58:19.942Z,13.5
2018-09-20T06:59:02.048Z,14.3
2018-09-20T07:00:20.109Z,18.1
2018-09-20T07:01:20.344Z,16.700001
2018-09-20T07:02:02.433Z,12.9
2018-09-20T07:03:20.368Z,13.2
2018-09-20T07:04:02.474Z,19.200001
2018-09-20T07:05:20.461Z,15.1
2018-09-20T07:06:02.794Z,16
2018-09-20T07:07:02.581Z,12.8
2018-09-20T07:08:02.781Z,14
2018-09-20T07:09:02.785Z,13.5
2018-09-20T07:10:02.712Z,12
2018-09-20T07:11:02.856Z,12.8
2018-09-20T07:12:03.008Z,10.8
2018-09-20T07:13:21.077Z,12.1
2018-09-20T07:14:03.255Z,13.6
2018-09-20T07:15:03.226Z,12.5
2018-09-20T07:16:03.352Z,12.8
2018-09-20T07:17:21.448Z,11.9
2018-09-20T07:18:03.631Z,12.1
2018-09-20T07:19:03.611Z,13.1
2018-09-20T07:20:03.687Z,11.5
2018-09-20T07:21:04.104Z,15.6
2018-09-20T07:22:03.946Z,11.4
2018-09-20T07:23:04.100Z,9.6
2018-09-20T07:24:04.056Z,13.3
2018-09-20T07:25:04.418Z,13.3
2018-09-20T07:26:05.334Z,10.9
2018-09-20T07:27:04.475Z,12.3
2018-09-20T07:28:04.438Z,12.6
2018-09-20T07:29:22.612Z,12.9
2018-09-20T07:30:04.778Z,10.7
2018-09-20T07:31:04.746Z,11.9
2018-09-20T07:32:04.899Z,14
2018-09-20T07:33:05.063Z,13.8
2018-09-20T07:34:05.347Z,10.8
2018-09-20T07:35:23.240Z,11.3
2018-09-20T07:36:05.434Z,15.1
2018-09-20T07:37:05.452Z,12.3
2018-09-20T07:38:05.518Z,11
2018-09-20T07:39:05.500Z,11.2
2018-09-20T07:40:05.614Z,12.8
2018-09-20T07:41:05.897Z,12.2
2018-09-20T07:42:06.893Z,10
2018-09-20T07:43:05.838Z,10
2018-09-20T07:44:05.967Z,12.5
2018-09-20T07:45:06.029Z,11
2018-09-20T07:46:07.222Z,10.8
2018-09-20T07:47:06.014Z,9.9
2018-09-20T07:48:06.373Z,12.1
2018-09-20T07:49:06.232Z,12.2
2018-09-20T07:50:06.196Z,12.6
2018-09-20T07:51:06.388Z,11.9
2018-09-20T07:52:24.405Z,11.1
2018-09-20T07:53:07.621Z,11.9
2018-09-20T07:54:06.577Z,10.4
2018-09-20T07:55:06.764Z,15.7
2018-09-20T07:56:24.815Z,12.3
2018-09-20T07:57:06.730Z,11.7
2018-09-20T07:58:06.878Z,11.4
2018-09-20T07:59:06.960Z,13.3
2018-09-20T08:00:07.077Z,9.6
2018-09-20T08:01:06.995Z,13.5
2018-09-20T08:02:07.277Z,10.6
2018-09-20T08:03:07.307Z,10.7
2018-09-20T08:04:07.419Z,10.6
2018-09-20T08:05:07.356Z,13.4
2018-09-20T08:06:07.525Z,11.7
2018-09-20T08:07:25.387Z,14.7
2018-09-20T08:08:07.823Z,12.9
2018-09-20T08:09:07.633Z,11.9
2018-09-20T08:10:07.771Z,10.8
2018-09-20T08:11:07.913Z,11
2018-09-20T08:12:08.308Z,10.9
2018-09-20T08:13:08.151Z,12.6
2018-09-20T08:14:26.049Z,10.3
2018-09-20T08:15:08.218Z,13.7
2018-09-20T08:16:08.320Z,10.5
2018-09-20T08:17:08.349Z,10.2
2018-09-20T08:18:08.361Z,12.1
2018-09-20T08:19:26.303Z,9.7
2018-09-20T08:21:08.479Z,12.2
2018-09-20T08:22:08.515Z,11.7
2018-09-20T08:23:08.590Z,10.3
2018-09-20T08:24:26.509Z,10.1
2018-09-20T08:25:08.649Z,11.7
2018-09-20T08:26:08.785Z,10.2
2018-09-20T08:27:08.959Z,11.7
2018-09-20T08:28:08.968Z,10.5
2018-09-20T08:29:09.092Z,12.1
2018-09-20T08:30:09.133Z,11.6
2018-09-20T08:31:09.188Z,11.9
2018-09-20T08:32:09.124Z,12.3
2018-09-20T08:33:09.284Z,11.9
2018-09-20T08:34:09.673Z,13.2
2018-09-20T08:35:09.561Z,12.8
2018-09-20T08:36:09.520Z,11.6
2018-09-20T08:37:09.728Z,11.5
2018-09-20T08:38:09.741Z,13.4
2018-09-20T08:39:09.801Z,12.9
2018-09-20T08:40:09.778Z,13.2
2018-09-20T08:41:09.882Z,13.2
2018-09-20T08:42:10.170Z,12.7
2018-09-20T08:43:10.142Z,12.2
2018-09-20T08:44:10.117Z,12.5
2018-09-20T08:45:10.274Z,11.3
2018-09-20T08:46:10.467Z,11.5
2018-09-20T08:47:28.368Z,13.8
2018-09-20T08:49:10.689Z,12.7
2018-09-20T08:50:10.739Z,13.4
2018-09-20T08:51:10.932Z,15.2
2018-09-20T08:52:28.741Z,13.6
2018-09-20T08:53:10.885Z,12.2
2018-09-20T08:54:28.900Z,16
2018-09-20T08:55:10.832Z,12.9
2018-09-20T08:56:28.996Z,12.3
2018-09-20T08:57:11.245Z,12.3
2018-09-20T08:58:11.312Z,12.3
2018-09-20T08:59:11.469Z,13.7
2018-09-20T09:00:11.436Z,13.2
2018-09-20T09:01:11.532Z,15.2
2018-09-20T09:02:11.639Z,15.5
2018-09-20T09:03:11.754Z,12.7
2018-09-20T09:04:11.835Z,12.6
2018-09-20T09:05:11.952Z,12.5
2018-09-20T09:06:29.878Z,14.4
2018-09-20T09:07:12.022Z,13.8
2018-09-20T09:08:12.046Z,13.2
2018-09-20T09:09:12.105Z,13.2
2018-09-20T09:10:12.085Z,13.7
2018-09-20T09:11:12.314Z,15.7
2018-09-20T09:12:12.464Z,13.3
2018-09-20T09:13:12.529Z,15.6
2018-09-20T09:14:12.479Z,14.6
2018-09-20T09:15:12.609Z,14.8
2018-09-20T09:16:12.811Z,15.4
2018-09-20T09:17:12.931Z,15.2
2018-09-20T09:18:12.968Z,13.9
2018-09-20T09:19:13.020Z,15.8
2018-09-20T09:20:12.965Z,14.9
2018-09-20T09:21:13.457Z,15.4
2018-09-20T09:22:13.400Z,13.2
2018-09-20T09:23:31.318Z,13.1
2018-09-20T09:24:13.457Z,14.4
2018-09-20T09:25:13.731Z,14.4
2018-09-20T09:26:13.747Z,15.6
2018-09-20T09:27:13.741Z,15.9
2018-09-20T09:28:13.783Z,12.7
2018-09-20T09:29:31.916Z,14.8
2018-09-20T09:31:31.767Z,16.1
2018-09-20T09:32:14.048Z,13.3
2018-09-20T09:33:14.178Z,15.5
2018-09-20T09:34:14.358Z,16.4
2018-09-20T09:35:14.228Z,16.4
2018-09-20T09:36:32.446Z,15.5
2018-09-20T09:37:14.449Z,15.4
2018-09-20T09:38:14.451Z,13.7
2018-09-20T09:39:14.424Z,15.2
2018-09-20T09:40:14.670Z,13.2
2018-09-20T09:41:14.790Z,14.5
2018-09-20T09:42:14.820Z,14.9
2018-09-20T09:43:33.014Z,17.1
2018-09-20T09:44:15.127Z,14.4
2018-09-20T09:45:15.165Z,15.8
2018-09-20T09:46:15.150Z,13.3
2018-09-20T09:47:15.281Z,15.2
2018-09-20T09:48:15.603Z,12.9
2018-09-20T09:49:15.695Z,14.7
2018-09-20T09:51:15.763Z,14.1
2018-09-20T09:52:15.840Z,14.2
2018-09-20T09:53:15.831Z,13.3
2018-09-20T09:54:15.941Z,13.9
2018-09-20T09:55:15.966Z,12.9
2018-09-20T09:56:16.015Z,13.4
2018-09-20T09:57:15.972Z,15.4
2018-09-20T09:58:16.087Z,14.1
2018-09-20T09:59:16.280Z,13.4
2018-09-20T10:00:16.310Z,13.5
2018-09-20T10:01:16.256Z,17.700001
2018-09-20T10:02:16.431Z,15.7
2018-09-20T10:03:16.637Z,14.9
2018-09-20T10:04:16.833Z,14.9
2018-09-20T10:05:16.620Z,14.1
2018-09-20T10:06:16.753Z,15.7
2018-09-20T10:07:16.990Z,15.6
2018-09-20T10:08:35.050Z,13.6
2018-09-20T10:09:17.105Z,15.3
2018-09-20T10:10:17.031Z,14.9
2018-09-20T10:11:17.246Z,14.8
2018-09-20T10:12:17.386Z,15.6
2018-09-20T10:13:17.428Z,15.4
2018-09-20T10:14:17.570Z,15.8
2018-09-20T10:15:35.432Z,14.9
2018-09-20T10:16:17.690Z,18.1
2018-09-20T10:17:17.659Z,16.6
2018-09-20T10:18:17.778Z,16.6
2018-09-20T10:19:18.068Z,18.700001
2018-09-20T10:20:18.075Z,15.3
2018-09-20T10:21:18.007Z,15.2
2018-09-20T10:22:18.148Z,16.6
2018-09-20T10:23:18.424Z,17.4
2018-09-20T10:24:18.531Z,14.4
2018-09-20T10:26:36.416Z,15.8
2018-09-20T10:27:18.657Z,14.9
2018-09-20T10:28:18.718Z,16.1
2018-09-20T10:29:18.749Z,14.2
2018-09-20T10:30:18.753Z,14.4
2018-09-20T10:31:18.972Z,14.8
2018-09-20T10:33:18.823Z,15.7
2018-09-20T10:34:18.963Z,14.8
2018-09-20T10:35:19.063Z,14.1
2018-09-20T10:36:19.210Z,16.9
2018-09-20T10:37:19.218Z,17.200001
2018-09-20T10:38:19.259Z,13.9
2018-09-20T10:39:19.338Z,15.5
2018-09-20T10:41:19.475Z,14.4
2018-09-20T10:42:19.500Z,12.6
2018-09-20T10:43:19.536Z,13.3
2018-09-20T10:44:37.411Z,12.4
2018-09-20T10:45:19.646Z,11.2
2018-09-20T10:46:19.723Z,11.7
2018-09-20T10:47:19.723Z,11.4
2018-09-20T10:48:19.841Z,14
2018-09-20T10:49:20.103Z,11.2
2018-09-20T10:50:20.156Z,11
2018-09-20T10:51:20.168Z,11.7
2018-09-20T10:52:20.152Z,11.3
2018-09-20T10:53:21.296Z,12.1
2018-09-20T10:54:20.474Z,12.8
2018-09-20T10:55:38.402Z,12.3
2018-09-20T10:56:20.564Z,15
2018-09-20T10:57:20.582Z,11.6
2018-09-20T10:58:38.638Z,12
2018-09-20T10:59:20.618Z,11.6
2018-09-20T11:00:20.756Z,13.6
2018-09-20T11:01:20.861Z,12.7
2018-09-20T11:02:20.949Z,15.3
2018-09-20T11:03:38.822Z,15
2018-09-20T11:04:21.017Z,12
2018-09-20T11:05:21.369Z,12.4
2018-09-20T11:06:21.040Z,12.2
2018-09-20T11:07:21.086Z,12.8
2018-09-20T11:08:21.113Z,15.5
2018-09-20T11:09:21.141Z,12.3
2018-09-20T11:10:22.121Z,16.700001
2018-09-20T11:11:21.215Z,11.9
2018-09-20T11:12:39.231Z,13.8
2018-09-20T11:13:21.228Z,13
2018-09-20T11:14:21.209Z,11.7
2018-09-20T11:15:21.438Z,12.8
2018-09-20T11:16:39.646Z,14.1
2018-09-20T11:17:39.399Z,12.2
2018-09-20T11:18:21.555Z,13.6
2018-09-20T11:19:21.709Z,12.7
2018-09-20T11:20:21.595Z,13.1
2018-09-20T11:21:39.489Z,12.1
2018-09-20T11:22:21.655Z,12.2
2018-09-20T11:23:21.781Z,11.3
2018-09-20T11:24:21.895Z,11.9
2018-09-20T11:25:21.873Z,11.2
2018-09-20T11:26:22.031Z,11.4
2018-09-20T11:27:22.248Z,10.2
2018-09-20T11:28:22.354Z,13.1
2018-09-20T11:29:22.325Z,11.8
2018-09-20T11:30:22.518Z,11.4
2018-09-20T11:31:22.539Z,12.1
2018-09-20T11:32:22.570Z,12.2
2018-09-20T11:33:22.651Z,10.6
2018-09-20T11:34:22.766Z,11.3
2018-09-20T11:35:23.028Z,12.3
2018-09-20T11:36:22.912Z,12.4
2018-09-20T11:37:23.071Z,13.2
2018-09-20T11:38:23.239Z,13.5
2018-09-20T11:39:40.979Z,13.1
2018-09-20T11:40:23.170Z,11.6
2018-09-20T11:41:23.176Z,13
2018-09-20T11:42:23.268Z,13.1
2018-09-20T11:43:23.379Z,12.2
2018-09-20T11:44:23.375Z,12.5
2018-09-20T11:45:23.951Z,12.1
2018-09-20T11:46:23.513Z,11.8
2018-09-20T11:47:23.588Z,12.1
2018-09-20T11:48:23.576Z,12.1
2018-09-20T11:49:23.597Z,12.3
2018-09-20T11:50:41.635Z,14
2018-09-20T11:51:23.593Z,15.7
2018-09-20T11:52:23.811Z,11.6
2018-09-20T11:53:23.895Z,12.9
2018-09-20T11:54:24.043Z,13.3
2018-09-20T11:55:24.016Z,13.8
2018-09-20T11:56:42.085Z,12.8
2018-09-20T11:57:24.403Z,12.7
2018-09-20T11:58:24.623Z,16.200001
2018-09-20T11:59:24.484Z,12.8
2018-09-20T12:00:24.471Z,13.2
2018-09-20T12:01:24.748Z,12.5
2018-09-20T12:02:24.751Z,13.2
2018-09-20T12:03:24.761Z,16.4
2018-09-20T12:04:24.791Z,12.5
2018-09-20T12:05:24.944Z,12.1
2018-09-20T12:06:42.994Z,12.6
2018-09-20T12:07:24.960Z,10.4
2018-09-20T12:08:25.141Z,11.4
2018-09-20T12:09:25.223Z,11
2018-09-20T12:10:25.248Z,11.4
2018-09-20T12:11:25.224Z,14.1
2018-09-20T12:12:25.388Z,12.2
2018-09-20T12:13:25.699Z,13
2018-09-20T12:14:25.901Z,12.9
2018-09-20T12:15:25.829Z,11.6
2018-09-20T12:16:25.803Z,12.6
2018-09-20T12:17:26.077Z,14.5
2018-09-20T12:18:26.241Z,12.6
2018-09-20T12:19:26.228Z,15
2018-09-20T12:20:26.227Z,10.2
2018-09-20T12:21:26.298Z,10.2
2018-09-20T12:22:26.363Z,12.4
2018-09-20T12:23:44.265Z,11.6
2018-09-20T12:24:26.567Z,12.1
2018-09-20T12:25:26.599Z,11.9
2018-09-20T12:26:26.684Z,13.5
2018-09-20T12:27:26.681Z,13.7
2018-09-20T12:28:26.900Z,11.1
2018-09-20T12:29:44.849Z,13.3
2018-09-20T12:30:26.980Z,12.2
2018-09-20T12:31:27.165Z,12.9
2018-09-20T12:32:45.322Z,14.1
2018-09-20T12:33:27.456Z,10.4
2018-09-20T12:35:27.543Z,9.8
2018-09-20T12:36:27.801Z,12.5
2018-09-20T12:37:27.946Z,10.3
2018-09-20T12:38:28.088Z,11.4
2018-09-20T12:39:28.070Z,12.8
2018-09-20T12:40:28.294Z,10.1
2018-09-20T12:41:28.259Z,12.6
2018-09-20T12:42:46.389Z,10.9
2018-09-20T12:43:28.413Z,10.5
2018-09-20T12:44:28.704Z,13.1
2018-09-20T12:45:28.738Z,14.9
2018-09-20T12:46:28.723Z,10.4
2018-09-20T12:47:28.880Z,12.7
2018-09-20T12:48:28.950Z,15
2018-09-20T12:49:29.122Z,11.1
2018-09-20T12:50:46.861Z,11.2
2018-09-20T12:51:29.028Z,12.4
2018-09-20T12:52:29.018Z,12.6
2018-09-20T12:53:29.052Z,9.9
2018-09-20T12:54:29.061Z,12.2
2018-09-20T12:55:29.039Z,12.3
2018-09-20T12:56:29.349Z,10.3
2018-09-20T12:57:29.375Z,11.9
2018-09-20T12:58:29.333Z,11.6
2018-09-20T12:59:29.525Z,13.7
2018-09-20T13:00:29.723Z,12
2018-09-20T13:01:29.702Z,11.6
2018-09-20T13:02:29.739Z,12
2018-09-20T13:03:29.719Z,10.5
2018-09-20T13:04:29.918Z,11.6
2018-09-20T13:05:29.994Z,12.3
2018-09-20T13:06:29.988Z,11.4
2018-09-20T13:07:30.106Z,11.7
2018-09-20T13:08:30.439Z,11
2018-09-20T13:11:11.006Z,10.5
2018-09-20T13:11:26.995Z,10.8
2018-09-20T13:12:26.975Z,9.5
2018-09-20T13:13:27.334Z,9.7
2018-09-20T13:14:27.166Z,10
2018-09-20T13:15:27.164Z,12.2
2018-09-20T13:39:20.115Z,10.7
2018-09-20T13:39:53.985Z,11.3
2018-09-20T13:40:36.103Z,8.9
2018-09-20T13:41:36.404Z,11.7
2018-09-20T13:42:36.345Z,9.4
2018-09-20T13:43:36.426Z,9.5
2018-09-20T13:44:36.542Z,8.1
2018-09-20T13:46:36.815Z,10.7
2018-09-20T13:47:36.852Z,9.7
2018-09-20T13:48:36.942Z,10.7
2018-09-20T13:49:37.136Z,7.9
2018-09-20T13:50:55.179Z,9.6
2018-09-20T13:51:36.984Z,8.5
2018-09-20T13:53:37.520Z,10.2
2018-09-20T13:54:56.269Z,11.5
2018-09-20T13:55:37.414Z,10.8
2018-09-20T13:56:37.534Z,9.5
2018-09-20T13:58:37.469Z,10
2018-09-20T13:59:37.477Z,8.4
2018-09-20T14:00:37.553Z,12.5
2018-09-20T14:01:37.716Z,10.5
2018-09-20T14:02:55.574Z,8.6
2018-09-20T14:03:37.776Z,8.5
2018-09-20T14:04:37.824Z,8.2
2018-09-20T14:05:37.929Z,8.1
2018-09-20T14:06:38.089Z,7.8
2018-09-20T14:07:37.994Z,8.1
2018-09-20T14:08:38.258Z,12.6
2018-09-20T14:09:38.348Z,7.3
2018-09-20T14:10:38.174Z,6.9
2018-09-20T14:11:38.160Z,7.9
2018-09-20T14:12:38.456Z,7.2
2018-09-20T14:14:56.477Z,7.3
2018-09-20T14:15:56.539Z,8.6
2018-09-20T14:16:38.844Z,7.8
2018-09-20T14:17:38.991Z,8.3
2018-09-20T14:18:38.988Z,7.8
2018-09-20T14:19:38.947Z,8.7
2018-09-20T14:20:39.144Z,8.8
2018-09-20T14:21:39.169Z,8.8
2018-09-20T14:22:39.205Z,8.4
2018-09-20T14:23:39.230Z,8.2
2018-09-20T14:24:39.268Z,8.6
2018-09-20T14:25:39.321Z,9.6
2018-09-20T14:26:39.324Z,6.6
2018-09-20T14:27:39.439Z,6.5
2018-09-20T14:28:39.617Z,7.3
2018-09-20T14:29:39.566Z,7.4
2018-09-20T14:30:39.545Z,7
2018-09-20T14:31:39.752Z,7
2018-09-20T14:32:39.560Z,7.1
2018-09-20T14:33:39.673Z,6.8
2018-09-20T14:34:40.033Z,7.9
2018-09-20T14:35:39.854Z,6.6